Terminal Aerodrome Forecast
Issued by NWS Cleveland, OH

Home | Current Version | Previous Version | Text Only | Print | Product List | Glossary On
Versions: 1 2 3 4 5 6 7 8 9 10 11 12 13 14 15 16 17 18 19
000
FTUS41 KCLE 230543
TAFCAK
TAF
KCAK 230543Z 2306/2406 36008KT 5SM BR SCT006 OVC012
      TEMPO 2306/2310 2SM -DZ BR OVC006
     FM231000 36005KT P6SM BKN012
     FM231300 36005KT P6SM SCT012
     FM231500 36008KT P6SM SCT025
     FM231700 02008KT P6SM SCT050
     FM232300 VRB03KT P6SM SKC=

USA.gov is the U.S. government's official web portal to all federal, state and local government web resources and services.